Coyote Springs, Nevada
Current Conditions -  °F | °C
As of 6:58 PM on Friday 24 Oct 2014 (Local Time) from KINS Reporting Station
Clear Clear  
Wind Chill: 74°   Ceiling: Unl
Heat Index: 74°   Visibility: 10mi
Dew Point: 38°   Wind: 10mph
Humidity: 27%   Direction: 100°E
Pressure: 30.03"   Gusts: NA
Location:  36.91°N, 114.95°W
Report Text: KINS 250158Z AUTO 10009KT 10SM CLR 23/03 A3003 RMK AO2 SLP139 T02340031 $
Loading
Personal Weather Stations






























Interactive Weather Map
Tropical Storm Tracking
New forecast layout! Learn more

10-Day Weather Forecast

Advertisements
Track Severe Weather on mobile